Time;durP1;ratioP1;P1;durP2;ratioP2;P2;SDS_P1;SDS_P2;PMS_P1;PMS_P2;Temp;Humidity;BMP_temperature;BMP_pressure;BME280_temperature;BME280_humidity;BME280_pressure;Samples;Min_cycle;Max_cycle;Signal;HPM_P1;HPM_P2
2024/02/12 00:00:18;;;;;;;4.17;1.97;;;8.90;99.90;;;;;;5143513;27;20408;-72
2024/02/12 00:02:47;;;;;;;2.10;1.67;;;8.90;99.90;;;;;;5143797;27;20191;-69
2024/02/12 00:05:13;;;;;;;5.00;1.93;;;8.90;99.90;;;;;;5141591;27;20472;-73
2024/02/12 00:07:42;;;;;;;6.60;2.27;;;8.80;99.90;;;;;;5143577;27;20424;-70
2024/02/12 00:10:11;;;;;;;2.60;1.57;;;8.90;99.90;;;;;;5125894;27;20502;-70
2024/02/12 00:12:40;;;;;;;5.53;2.30;;;8.90;99.90;;;;;;5142372;27;20476;-70
2024/02/12 00:15:07;;;;;;;4.17;1.93;;;8.90;99.90;;;;;;5143151;27;20413;-70
2024/02/12 00:17:35;;;;;;;2.97;1.73;;;8.90;99.90;;;;;;5124436;27;20400;-69
2024/02/12 00:20:06;;;;;;;2.60;1.60;;;8.90;99.90;;;;;;5145310;27;20428;-71
2024/02/12 00:22:35;;;;;;;4.00;2.50;;;8.90;99.90;;;;;;5145688;27;20512;-69
2024/02/12 00:25:03;;;;;;;3.03;2.13;;;8.80;99.90;;;;;;5145392;27;20492;-69
2024/02/12 00:27:31;;;;;;;5.87;2.23;;;8.70;99.90;;;;;;5144832;27;20442;-70
2024/02/12 00:29:58;;;;;;;3.23;2.20;;;8.60;99.90;;;;;;5112161;27;20424;-69
2024/02/12 00:32:24;;;;;;;4.40;2.03;;;8.50;99.90;;;;;;5146720;27;20412;-70
2024/02/12 00:34:49;;;;;;;3.80;1.93;;;8.40;99.90;;;;;;5146816;27;20421;-70
2024/02/12 00:37:15;;;;;;;3.43;2.10;;;8.30;99.90;;;;;;5146641;27;20448;-72
2024/02/12 00:39:41;;;;;;;5.43;2.50;;;8.20;99.90;;;;;;5145394;27;20187;-70
2024/02/12 00:42:12;;;;;;;3.90;2.50;;;8.10;99.90;;;;;;5146074;27;20369;-69
2024/02/12 00:44:42;;;;;;;2.70;2.40;;;8.10;99.90;;;;;;5137465;27;20195;-71
2024/02/12 00:47:08;;;;;;;7.40;2.87;;;8.10;99.90;;;;;;5137527;27;20514;-69
2024/02/12 00:49:34;;;;;;;4.00;2.30;;;8.10;99.90;;;;;;5107310;27;20433;-69
2024/02/12 00:52:02;;;;;;;3.60;2.47;;;8.10;99.90;;;;;;5124537;27;20199;-70
2024/02/12 00:54:30;;;;;;;6.73;3.63;;;8.00;99.90;;;;;;5122816;27;20424;-70
2024/02/12 00:56:57;;;;;;;5.00;3.57;;;8.00;99.90;;;;;;5140381;27;20444;-71
2024/02/12 00:59:23;;;;;;;4.80;3.20;;;8.10;99.90;;;;;;5141845;27;20409;-69
2024/02/12 01:01:49;;;;;;;4.37;3.10;;;8.20;99.90;;;;;;5140572;27;20754;-73
2024/02/12 01:04:15;;;;;;;5.60;3.50;;;8.20;99.90;;;;;;5123112;27;20941;-68
2024/02/12 01:06:42;;;;;;;7.07;3.53;;;8.30;99.90;;;;;;5140369;27;20441;-69
2024/02/12 01:09:12;;;;;;;4.20;3.23;;;8.40;99.90;;;;;;5139607;27;20181;-69
2024/02/12 01:11:39;;;;;;;6.63;4.90;;;8.40;99.90;;;;;;5138486;27;20732;-72
2024/02/12 01:14:06;;;;;;;5.77;3.60;;;8.50;99.90;;;;;;5140267;27;20421;-73
2024/02/12 01:16:32;;;;;;;5.67;4.00;;;8.50;99.90;;;;;;5141783;27;20443;-70
2024/02/12 01:18:58;;;;;;;4.30;3.50;;;8.50;99.90;;;;;;5140832;27;20425;-69
2024/02/12 01:21:26;;;;;;;4.77;3.30;;;8.60;99.90;;;;;;5134460;27;20415;-70
2024/02/12 01:23:52;;;;;;;10.20;4.80;;;8.60;99.90;;;;;;5130543;27;20449;-72
2024/02/12 01:26:18;;;;;;;7.07;4.07;;;8.60;99.90;;;;;;5126009;27;20438;-70
2024/02/12 01:28:44;;;;;;;6.60;4.00;;;8.60;99.90;;;;;;5140626;27;20432;-68
2024/02/12 01:31:17;;;;;;;5.03;3.63;;;8.70;99.90;;;;;;5137414;27;20413;-68
2024/02/12 01:33:47;;;;;;;5.33;3.70;;;8.70;99.90;;;;;;5133655;27;20460;-69
2024/02/12 01:36:13;;;;;;;7.90;3.70;;;8.70;99.90;;;;;;5124242;27;20495;-72
2024/02/12 01:38:40;;;;;;;3.43;3.10;;;8.70;99.90;;;;;;5142800;27;20415;-70
2024/02/12 01:41:06;;;;;;;4.17;3.30;;;8.70;99.90;;;;;;5139470;27;20412;-70
2024/02/12 01:43:34;;;;;;;5.87;4.13;;;8.70;99.90;;;;;;5140984;27;20412;-69
2024/02/12 01:46:00;;;;;;;5.33;4.33;;;8.70;99.90;;;;;;5140429;27;20217;-71
2024/02/12 01:48:30;;;;;;;6.80;4.90;;;8.60;99.90;;;;;;5140927;27;20424;-70
2024/02/12 01:50:58;;;;;;;5.97;4.50;;;8.60;99.90;;;;;;5138683;27;20413;-69
2024/02/12 01:53:24;;;;;;;8.03;4.57;;;8.50;99.90;;;;;;5139225;27;20420;-70
2024/02/12 01:55:50;;;;;;;8.73;6.33;;;8.50;99.90;;;;;;5139142;27;20740;-70
2024/02/12 01:58:17;;;;;;;10.30;6.10;;;8.50;99.90;;;;;;5119531;28;20411;-69
2024/02/12 02:00:48;;;;;;;8.53;5.43;;;8.50;99.90;;;;;;5138882;27;20194;-71
2024/02/12 02:03:17;;;;;;;10.00;6.23;;;8.50;99.90;;;;;;5139394;27;20453;-69
2024/02/12 02:05:45;;;;;;;6.90;5.07;;;8.50;99.90;;;;;;5139680;27;20523;-69
2024/02/12 02:08:11;;;;;;;7.83;6.20;;;8.50;99.90;;;;;;5140608;27;20468;-69
2024/02/12 02:10:38;;;;;;;9.90;6.73;;;8.50;99.90;;;;;;5139776;27;20434;-68
2024/02/12 02:13:06;;;;;;;9.60;7.70;;;8.50;99.90;;;;;;5140225;27;21027;-69
2024/02/12 02:15:35;;;;;;;12.63;7.80;;;8.60;99.90;;;;;;5140772;27;20433;-68
2024/02/12 02:18:03;;;;;;;9.60;7.87;;;8.60;99.90;;;;;;5121739;28;20429;-70
2024/02/12 02:20:30;;;;;;;10.63;7.80;;;8.60;99.90;;;;;;5139740;28;20440;-71
2024/02/12 02:22:56;;;;;;;9.50;7.10;;;8.60;99.90;;;;;;5139643;28;20427;-70
2024/02/12 02:25:25;;;;;;;13.00;8.00;;;8.60;99.90;;;;;;5138276;28;20476;-69
2024/02/12 02:27:51;;;;;;;14.03;8.03;;;8.60;99.90;;;;;;5139070;28;20835;-70
2024/02/12 02:30:19;;;;;;;12.60;8.00;;;8.50;99.90;;;;;;5139324;27;20703;-69
2024/02/12 02:32:44;;;;;;;8.90;7.33;;;8.50;99.90;;;;;;5138788;28;20400;-68
2024/02/12 02:35:12;;;;;;;11.03;8.30;;;8.40;99.90;;;;;;5138340;28;20669;-69
2024/02/12 02:37:37;;;;;;;12.60;9.60;;;8.40;99.90;;;;;;5139598;28;20187;-68
2024/02/12 02:40:03;;;;;;;11.23;8.20;;;8.30;99.90;;;;;;5138780;28;20436;-68
2024/02/12 02:42:29;;;;;;;9.50;7.50;;;8.20;99.90;;;;;;5140190;28;20227;-68
2024/02/12 02:44:55;;;;;;;11.93;8.27;;;8.20;99.90;;;;;;5139246;28;20468;-70
2024/02/12 02:47:21;;;;;;;12.13;8.13;;;8.20;99.90;;;;;;5120466;28;20433;-69
2024/02/12 02:49:47;;;;;;;12.90;9.87;;;8.10;99.90;;;;;;5138387;28;20470;-69
2024/02/12 02:52:13;;;;;;;16.33;9.70;;;8.10;99.90;;;;;;5137996;28;20252;-69
2024/02/12 02:54:39;;;;;;;12.27;10.30;;;8.10;99.90;;;;;;5143779;28;20415;-69
2024/02/12 02:57:05;;;;;;;16.77;10.63;;;8.00;99.90;;;;;;5125719;28;20274;-70
2024/02/12 02:59:31;;;;;;;13.17;9.13;;;8.00;99.90;;;;;;5142540;28;20468;-68
2024/02/12 03:01:57;;;;;;;16.53;10.73;;;8.00;99.90;;;;;;5143628;28;20405;-68
2024/02/12 03:04:22;;;;;;;16.57;11.53;;;8.00;99.90;;;;;;5146743;27;20289;-69
2024/02/12 03:06:48;;;;;;;20.20;11.30;;;8.00;99.90;;;;;;5144565;28;20217;-70
2024/02/12 03:09:13;;;;;;;16.10;11.40;;;8.00;99.90;;;;;;5141229;28;20171;-71
2024/02/12 03:11:40;;;;;;;15.90;10.97;;;7.90;99.90;;;;;;5142415;27;20270;-70
2024/02/12 03:14:08;;;;;;;16.27;11.77;;;7.90;99.90;;;;;;5141930;27;20191;-69
2024/02/12 03:16:35;;;;;;;16.47;11.63;;;7.90;99.90;;;;;;5142010;27;20448;-69
2024/02/12 03:19:01;;;;;;;18.57;12.87;;;7.90;99.90;;;;;;5142189;27;20420;-69
2024/02/12 03:21:27;;;;;;;22.43;13.47;;;7.90;99.90;;;;;;5126890;27;20413;-71
2024/02/12 03:23:57;;;;;;;18.60;12.47;;;7.90;99.90;;;;;;5142972;27;20198;-71
2024/02/12 03:26:22;;;;;;;20.63;14.20;;;7.90;99.90;;;;;;5140512;27;20429;-68
2024/02/12 03:28:51;;;;;;;20.80;13.37;;;7.80;99.90;;;;;;5141142;27;20864;-69
2024/02/12 03:31:16;;;;;;;21.73;12.97;;;7.80;99.90;;;;;;5141527;27;20198;-68
2024/02/12 03:33:42;;;;;;;22.03;14.47;;;7.90;99.90;;;;;;5141531;27;20543;-69
2024/02/12 03:36:09;;;;;;;20.67;15.00;;;7.80;99.90;;;;;;5142466;27;20274;-70
2024/02/12 03:38:34;;;;;;;27.17;16.20;;;7.90;99.90;;;;;;5141991;27;20750;-69
2024/02/12 03:41:00;;;;;;;25.13;14.47;;;7.80;99.90;;;;;;5140003;27;20412;-69
2024/02/12 03:43:27;;;;;;;23.80;15.00;;;7.90;99.90;;;;;;5141699;27;20193;-68
2024/02/12 03:45:56;;;;;;;19.60;13.50;;;7.90;99.90;;;;;;5140978;27;20643;-68
2024/02/12 04:02:10;;;;;;;22.93;15.30;;;8.00;99.90;;;;;;5136477;27;20831;-69
2024/02/12 04:04:38;;;;;;;21.90;14.50;;;7.90;99.90;;;;;;5140933;27;20460;-68
2024/02/12 04:07:04;;;;;;;25.67;15.07;;;7.90;99.90;;;;;;5141007;27;20490;-68
2024/02/12 04:09:30;;;;;;;21.50;15.27;;;7.90;99.90;;;;;;5141083;27;21028;-67
2024/02/12 04:11:56;;;;;;;20.83;14.63;;;8.00;99.90;;;;;;5140481;27;20496;-70
2024/02/12 04:14:23;;;;;;;25.50;15.23;;;8.00;99.90;;;;;;5122394;27;20431;-68
2024/02/12 04:16:52;;;;;;;20.10;15.07;;;8.00;99.90;;;;;;5140753;27;20218;-69
2024/02/12 04:19:22;;;;;;;20.33;14.10;;;8.10;99.90;;;;;;5141899;27;20803;-69
2024/02/12 04:21:52;;;;;;;25.27;15.00;;;8.10;99.90;;;;;;5142858;27;20425;-69
2024/02/12 04:24:19;;;;;;;30.53;17.87;;;8.10;99.90;;;;;;5143897;27;20461;-68
2024/02/12 04:26:44;;;;;;;22.77;15.70;;;8.10;99.90;;;;;;5143494;27;20863;-69
2024/02/12 04:29:10;;;;;;;25.80;15.50;;;8.10;99.90;;;;;;5141490;27;20401;-68
2024/02/12 04:31:36;;;;;;;22.47;13.77;;;8.20;99.90;;;;;;5143000;27;20195;-68
2024/02/12 04:34:07;;;;;;;24.77;15.80;;;8.20;99.90;;;;;;5141469;27;20187;-70
2024/02/12 04:36:39;;;;;;;20.47;15.60;;;8.30;99.90;;;;;;5140255;27;20568;-68
2024/02/12 04:39:05;;;;;;;18.30;14.27;;;8.30;99.90;;;;;;5139213;27;20445;-69
2024/02/12 04:41:40;;;;;;;19.83;13.97;;;8.40;99.90;;;;;;5125058;27;20785;-67
2024/02/12 04:44:07;;;;;;;20.87;15.33;;;8.40;99.90;;;;;;5120902;27;20246;-67
2024/02/12 04:46:36;;;;;;;22.73;15.30;;;8.40;99.90;;;;;;5136463;27;20500;-66
2024/02/12 04:49:03;;;;;;;21.93;15.80;;;8.40;99.90;;;;;;5135974;27;20508;-67
2024/02/12 04:51:31;;;;;;;21.83;14.80;;;8.40;99.90;;;;;;5130243;27;20411;-67
2024/02/12 04:53:57;;;;;;;22.77;15.50;;;8.40;99.90;;;;;;5137071;27;20477;-68
2024/02/12 04:56:23;;;;;;;23.90;16.47;;;8.40;99.90;;;;;;5136067;27;20779;-68
2024/02/12 04:58:49;;;;;;;28.03;17.23;;;8.40;99.90;;;;;;5136383;27;20412;-67
2024/02/12 05:01:15;;;;;;;22.00;14.43;;;8.40;99.90;;;;;;5137082;27;20594;-67
2024/02/12 05:03:40;;;;;;;26.83;16.20;;;8.40;99.90;;;;;;5138482;27;20424;-68
2024/02/12 05:06:06;;;;;;;21.80;14.10;;;8.40;99.90;;;;;;5138868;27;20366;-69
2024/02/12 05:08:31;;;;;;;20.40;15.87;;;8.40;99.90;;;;;;5138792;27;20234;-67
2024/02/12 05:10:57;;;;;;;20.33;14.67;;;8.40;99.90;;;;;;5142948;27;20182;-69
2024/02/12 05:13:24;;;;;;;24.37;13.67;;;8.40;99.90;;;;;;5129580;27;20493;-68
2024/02/12 05:15:53;;;;;;;26.50;15.63;;;8.40;99.90;;;;;;5143825;27;20436;-67
2024/02/12 05:23:49;;;;;;;25.90;16.63;;;8.40;99.90;;;;;;5133645;27;20470;-68
2024/02/12 05:26:18;;;;;;;22.50;16.43;;;8.40;99.90;;;;;;5139705;27;20887;-69
2024/02/12 05:28:44;;;;;;;26.00;15.67;;;8.40;99.90;;;;;;5133364;27;20413;-68
2024/02/12 05:31:09;;;;;;;20.60;13.90;;;8.30;99.90;;;;;;5139398;27;20912;-69
2024/02/12 05:33:38;;;;;;;28.57;15.73;;;8.30;99.90;;;;;;5133053;27;20443;-68
2024/02/12 05:36:06;;;;;;;23.03;14.10;;;8.20;99.90;;;;;;5138256;27;20219;-67
2024/02/12 05:38:33;;;;;;;27.67;16.03;;;8.20;99.90;;;;;;5139403;27;20489;-68
2024/02/12 05:40:59;;;;;;;24.37;18.17;;;8.20;99.90;;;;;;5138849;27;20408;-68
2024/02/12 05:43:24;;;;;;;24.67;16.77;;;8.20;99.90;;;;;;5142417;27;20732;-68
2024/02/12 05:45:50;;;;;;;23.53;16.40;;;8.20;99.90;;;;;;5138865;27;20263;-68
2024/02/12 05:48:16;;;;;;;19.63;14.10;;;8.20;99.90;;;;;;5137800;27;20502;-69
2024/02/12 05:50:41;;;;;;;22.77;14.97;;;8.20;99.90;;;;;;5139454;27;20583;-66
2024/02/12 05:53:08;;;;;;;26.40;16.43;;;8.20;99.90;;;;;;5138780;27;20453;-67
2024/02/12 05:55:39;;;;;;;31.20;18.17;;;8.10;99.90;;;;;;5138852;27;20215;-69
2024/02/12 05:58:05;;;;;;;28.20;16.80;;;8.10;99.90;;;;;;5136501;27;20488;-68
2024/02/12 06:00:31;;;;;;;23.13;16.00;;;8.10;99.90;;;;;;5128695;27;20409;-67
2024/02/12 06:02:57;;;;;;;22.10;14.77;;;8.10;99.90;;;;;;5137711;27;20419;-67
2024/02/12 06:05:22;;;;;;;19.50;13.83;;;8.10;99.90;;;;;;5138591;27;20540;-67
2024/02/12 06:07:48;;;;;;;23.70;16.50;;;8.10;99.90;;;;;;5137890;27;20439;-68
2024/02/12 06:10:17;;;;;;;20.10;14.70;;;8.00;99.90;;;;;;5138837;27;20552;-69
2024/02/12 06:12:42;;;;;;;23.43;15.47;;;8.00;99.90;;;;;;5137675;27;20209;-69
2024/02/12 06:15:09;;;;;;;21.50;14.20;;;7.90;99.90;;;;;;5138404;27;20424;-69
2024/02/12 06:17:36;;;;;;;27.57;16.10;;;7.90;99.90;;;;;;5138532;27;20515;-68
2024/02/12 06:20:05;;;;;;;21.10;14.60;;;7.90;99.90;;;;;;5119218;28;20431;-68
2024/02/12 06:22:33;;;;;;;25.30;15.50;;;7.80;99.90;;;;;;5137992;28;20503;-68
2024/02/12 06:25:03;;;;;;;22.10;14.70;;;7.80;99.90;;;;;;5138782;28;20448;-68
2024/02/12 06:27:29;;;;;;;25.83;14.77;;;7.80;99.90;;;;;;5138841;28;20435;-69
2024/02/12 06:29:54;;;;;;;20.27;14.73;;;7.70;99.90;;;;;;5137762;28;20468;-69
2024/02/12 06:32:20;;;;;;;18.83;13.23;;;7.80;99.90;;;;;;5138411;28;20182;-68
2024/02/12 06:34:46;;;;;;;19.70;13.77;;;7.70;99.90;;;;;;5141048;27;20669;-70
2024/02/12 06:37:12;;;;;;;21.53;12.97;;;7.80;99.90;;;;;;5138714;28;20499;-68
2024/02/12 06:39:39;;;;;;;22.73;13.83;;;7.80;99.90;;;;;;5139890;28;20421;-69
2024/02/12 06:42:05;;;;;;;18.20;12.67;;;7.80;99.90;;;;;;5121607;28;20223;-69
2024/02/12 06:44:32;;;;;;;17.10;13.80;;;7.90;99.90;;;;;;5138536;27;20495;-69
2024/02/12 06:46:58;;;;;;;20.37;14.03;;;7.90;99.90;;;;;;5142422;27;20783;-69
2024/02/12 06:49:24;;;;;;;20.97;13.37;;;7.90;99.90;;;;;;5142472;27;20442;-68
2024/02/12 06:51:50;;;;;;;21.27;16.20;;;7.90;99.90;;;;;;5124364;27;20421;-67
2024/02/12 06:54:15;;;;;;;26.87;17.33;;;7.90;99.90;;;;;;5143115;27;20238;-70
2024/02/12 06:56:41;;;;;;;24.00;16.17;;;7.90;99.90;;;;;;5143036;27;20245;-70
2024/02/12 06:59:08;;;;;;;23.27;15.00;;;7.90;99.90;;;;;;5143651;27;20186;-69
2024/02/12 07:01:33;;;;;;;18.47;13.63;;;8.00;99.90;;;;;;5144478;27;20423;-69
2024/02/12 07:04:00;;;;;;;24.63;14.30;;;8.00;99.90;;;;;;5142133;27;20497;-69
2024/02/12 07:06:27;;;;;;;18.53;13.20;;;8.10;99.90;;;;;;5142146;27;20199;-69
2024/02/12 07:08:52;;;;;;;18.20;12.53;;;8.10;99.90;;;;;;5142171;27;20546;-69
2024/02/12 07:11:18;;;;;;;18.60;14.70;;;8.10;99.90;;;;;;5141544;27;20446;-69
2024/02/12 07:13:43;;;;;;;24.10;14.80;;;8.10;99.90;;;;;;5142655;27;20187;-72
2024/02/12 07:16:16;;;;;;;17.30;13.20;;;8.10;99.90;;;;;;5139516;27;20222;-70
2024/02/12 07:18:42;;;;;;;16.60;12.17;;;8.10;99.90;;;;;;5138059;27;20450;-68
2024/02/12 07:21:08;;;;;;;19.70;14.00;;;8.10;99.90;;;;;;5131265;27;20878;-69
2024/02/12 07:23:33;;;;;;;18.30;13.13;;;8.10;99.90;;;;;;5123417;27;20421;-68
2024/02/12 07:25:59;;;;;;;22.30;15.43;;;8.10;99.90;;;;;;5119826;28;20231;-69
2024/02/12 07:28:24;;;;;;;20.87;15.23;;;8.10;99.90;;;;;;5123830;27;20180;-70
2024/02/12 07:30:50;;;;;;;22.03;14.40;;;8.10;99.90;;;;;;5132007;27;20198;-69
2024/02/12 07:33:18;;;;;;;20.87;13.97;;;8.10;99.90;;;;;;5132524;27;20191;-70
2024/02/12 07:35:44;;;;;;;19.47;13.53;;;8.20;99.90;;;;;;5123918;27;20234;-69
2024/02/12 07:38:09;;;;;;;16.30;12.03;;;8.20;99.90;;;;;;5141736;27;20424;-70
2024/02/12 07:40:35;;;;;;;23.80;14.20;;;8.20;99.90;;;;;;5141082;27;20187;-69
2024/02/12 07:43:01;;;;;;;20.03;13.77;;;8.20;99.90;;;;;;5141061;27;20222;-71
2024/02/12 07:45:27;;;;;;;17.80;14.23;;;8.20;99.90;;;;;;5141930;27;20471;-71
2024/02/12 07:47:57;;;;;;;17.17;12.57;;;8.20;99.90;;;;;;5142086;27;20175;-69
2024/02/12 07:50:22;;;;;;;19.30;12.00;;;8.20;99.90;;;;;;5137591;27;20465;-71
2024/02/12 07:52:48;;;;;;;16.90;12.50;;;8.20;99.90;;;;;;5128269;27;20699;-70
2024/02/12 07:55:14;;;;;;;14.23;11.57;;;8.20;99.90;;;;;;5141632;27;20190;-70
2024/02/12 07:57:44;;;;;;;19.23;11.60;;;8.20;99.90;;;;;;5123132;27;20191;-70
2024/02/12 08:00:14;;;;;;;25.13;14.37;;;8.20;99.90;;;;;;5143007;27;20221;-70
2024/02/12 08:02:43;;;;;;;19.50;12.43;;;8.20;99.90;;;;;;5123778;27;20424;-70
2024/02/12 08:05:14;;;;;;;22.70;13.27;;;8.10;99.90;;;;;;5142070;27;20994;-70
2024/02/12 08:07:40;;;;;;;20.47;13.73;;;8.00;99.90;;;;;;5141273;27;20421;-69
2024/02/12 08:10:07;;;;;;;17.70;12.47;;;8.00;99.90;;;;;;5142034;27;20823;-71
2024/02/12 08:12:34;;;;;;;17.93;13.43;;;7.90;99.90;;;;;;5142818;27;20413;-69
2024/02/12 08:15:00;;;;;;;22.33;13.63;;;7.90;99.90;;;;;;5142676;27;20683;-69
2024/02/12 08:17:25;;;;;;;21.97;13.70;;;7.90;99.90;;;;;;5142342;27;20460;-69
2024/02/12 08:19:52;;;;;;;18.03;12.27;;;7.90;99.90;;;;;;5111495;27;20423;-70
2024/02/12 08:22:17;;;;;;;19.27;12.20;;;7.90;99.90;;;;;;5144975;27;20203;-69
2024/02/12 08:24:43;;;;;;;14.97;10.77;;;8.00;99.90;;;;;;5127663;27;20556;-70
2024/02/12 08:27:09;;;;;;;16.77;10.90;;;8.00;99.90;;;;;;5144877;27;20625;-70
2024/02/12 08:29:36;;;;;;;15.03;11.50;;;8.00;99.90;;;;;;5144184;27;20189;-71
2024/02/12 08:32:04;;;;;;;14.63;9.83;;;8.10;99.90;;;;;;5146781;27;20477;-71
2024/02/12 08:34:30;;;;;;;16.00;11.03;;;8.10;99.90;;;;;;5127387;27;20420;-73
2024/02/12 08:36:56;;;;;;;12.80;10.10;;;8.10;99.90;;;;;;5144327;27;20485;-71
2024/02/12 08:39:22;;;;;;;11.60;9.37;;;8.20;99.90;;;;;;5142149;27;20793;-71
2024/02/12 08:41:49;;;;;;;18.97;11.23;;;8.20;99.90;;;;;;5144312;27;20540;-74
2024/02/12 08:44:14;;;;;;;14.47;10.40;;;8.30;99.90;;;;;;5138483;27;20191;-75
2024/02/12 08:46:41;;;;;;;12.70;9.30;;;8.40;99.90;;;;;;5141836;27;20439;-71
2024/02/12 08:49:06;;;;;;;18.13;11.83;;;8.40;99.90;;;;;;5123903;27;20475;-70
2024/02/12 08:51:32;;;;;;;17.27;9.93;;;8.50;99.90;;;;;;5143843;27;20421;-72
2024/02/12 08:53:59;;;;;;;29.03;11.87;;;8.50;99.90;;;;;;5142568;27;20212;-71
2024/02/12 08:56:28;;;;;;;15.50;10.13;;;8.60;99.90;;;;;;5142407;27;20428;-73
2024/02/12 08:58:55;;;;;;;16.57;9.93;;;8.70;99.90;;;;;;5126491;27;20420;-72
2024/02/12 09:01:21;;;;;;;17.73;10.97;;;8.90;99.90;;;;;;5143280;27;20666;-71
2024/02/12 09:03:47;;;;;;;18.70;13.80;;;9.00;99.90;;;;;;5144372;27;20509;-71
2024/02/12 09:06:13;;;;;;;19.83;11.00;;;9.10;99.90;;;;;;5141576;27;20214;-71
2024/02/12 09:08:42;;;;;;;16.37;9.83;;;9.20;99.90;;;;;;5141438;27;20862;-70
2024/02/12 09:11:09;;;;;;;23.60;10.27;;;9.40;99.90;;;;;;5141801;27;20705;-74
2024/02/12 09:13:35;;;;;;;18.00;10.93;;;9.50;99.90;;;;;;5125348;27;20500;-72
2024/02/12 09:16:02;;;;;;;16.20;9.53;;;9.60;99.90;;;;;;5143805;27;20477;-72
2024/02/12 09:18:28;;;;;;;9.63;8.07;;;9.70;99.90;;;;;;5143047;27;20420;-72
2024/02/12 09:21:00;;;;;;;12.13;8.20;;;9.80;99.90;;;;;;5125323;27;20875;-72
2024/02/12 09:23:25;;;;;;;11.07;8.80;;;9.90;99.90;;;;;;5124774;27;20183;-72
2024/02/12 09:25:51;;;;;;;12.90;9.00;;;10.00;99.90;;;;;;5143999;27;20556;-73
2024/02/12 09:28:18;;;;;;;10.93;7.93;;;10.20;99.90;;;;;;5125755;27;20169;-72
2024/02/12 09:30:44;;;;;;;26.80;15.57;;;10.30;99.90;;;;;;5125243;27;20413;-73
2024/02/12 09:33:12;;;;;;;15.40;10.77;;;10.30;99.90;;;;;;5127470;27;20426;-75
2024/02/12 09:35:38;;;;;;;15.63;11.07;;;10.30;99.90;;;;;;5125161;27;20441;-75
2024/02/12 09:38:04;;;;;;;14.53;9.83;;;10.30;99.90;;;;;;5126978;27;20426;-74
2024/02/12 09:40:33;;;;;;;16.50;9.03;;;10.30;99.90;;;;;;5143720;27;20781;-74
2024/02/12 09:42:59;;;;;;;13.73;9.60;;;10.20;99.90;;;;;;5143331;27;20455;-72
2024/02/12 09:45:31;;;;;;;11.17;7.60;;;10.20;99.90;;;;;;5140651;27;20455;-72
2024/02/12 09:48:00;;;;;;;11.37;7.70;;;10.10;99.90;;;;;;5136732;27;20427;-72
2024/02/12 09:50:31;;;;;;;16.70;9.30;;;10.10;99.90;;;;;;5137590;27;20394;-73
2024/02/12 09:52:59;;;;;;;11.50;8.70;;;10.10;99.90;;;;;;5144376;27;20414;-76
2024/02/12 09:55:25;;;;;;;8.50;6.40;;;10.10;99.90;;;;;;5128537;27;20421;-74
2024/02/12 09:57:52;;;;;;;15.03;7.80;;;10.10;99.90;;;;;;5150287;27;20404;-74
2024/02/12 10:00:22;;;;;;;12.60;7.20;;;10.10;99.90;;;;;;5150679;27;20767;-75
2024/02/12 10:02:51;;;;;;;10.30;7.17;;;9.90;99.90;;;;;;5152483;27;20420;-74
2024/02/12 10:05:22;;;;;;;8.93;7.30;;;9.80;99.90;;;;;;5138190;27;20475;-74
2024/02/12 10:07:47;;;;;;;11.80;8.00;;;9.70;99.90;;;;;;5136359;27;20485;-74
2024/02/12 10:10:14;;;;;;;9.80;6.60;;;9.60;99.90;;;;;;5114135;27;20432;-74
2024/02/12 10:12:41;;;;;;;8.23;5.60;;;9.60;99.90;;;;;;5134505;27;20187;-74
2024/02/12 10:15:07;;;;;;;6.83;5.20;;;9.70;99.90;;;;;;5119883;28;20504;-74
2024/02/12 10:17:33;;;;;;;15.03;7.63;;;9.80;99.90;;;;;;5120412;28;20417;-74
2024/02/12 10:19:59;;;;;;;11.13;7.50;;;9.90;99.90;;;;;;5129498;28;20434;-74
2024/02/12 10:22:25;;;;;;;10.83;7.20;;;10.10;99.90;;;;;;5136823;27;20179;-74
2024/02/12 10:24:51;;;;;;;10.53;6.53;;;10.30;99.90;;;;;;5130453;28;20449;-75
2024/02/12 10:27:23;;;;;;;14.83;6.47;;;10.60;99.90;;;;;;5149039;28;20446;-75
2024/02/12 10:29:59;;;;;;;12.67;6.90;;;10.90;99.90;;;;;;5132706;28;20219;-74
2024/02/12 10:32:28;;;;;;;7.30;5.87;;;11.30;99.90;;;;;;5116617;28;20410;-74
2024/02/12 10:35:00;;;;;;;10.77;5.83;;;11.50;99.90;;;;;;5167467;27;20431;-74
2024/02/12 10:37:26;;;;;;;7.87;4.80;;;11.60;99.90;;;;;;5134290;28;20444;-75
2024/02/12 10:39:53;;;;;;;8.93;5.20;;;11.80;99.90;;;;;;5116309;28;20434;-75
2024/02/12 10:42:35;;;;;;;11.33;5.73;;;11.80;99.90;;;;;;5116598;28;20474;-75
2024/02/12 10:45:06;;;;;;;7.87;4.20;;;11.80;99.90;;;;;;5125218;28;20475;-75
2024/02/12 10:47:36;;;;;;;6.40;4.50;;;11.80;99.90;;;;;;5132038;28;20447;-75
2024/02/12 10:50:04;;;;;;;7.37;5.50;;;11.90;99.90;;;;;;5137039;28;20431;-74
2024/02/12 10:52:30;;;;;;;11.57;6.07;;;12.10;99.90;;;;;;5133994;28;20426;-74
2024/02/12 10:54:56;;;;;;;11.90;4.80;;;12.10;99.90;;;;;;5150798;28;20422;-74
2024/02/12 10:57:23;;;;;;;11.07;4.10;;;12.20;99.90;;;;;;5132272;28;20447;-74
2024/02/12 11:00:05;;;;;;;12.60;3.57;;;12.20;99.60;;;;;;5133465;28;20427;-73
2024/02/12 11:02:45;;;;;;;7.87;5.17;;;12.20;98.10;;;;;;5131299;28;20431;-74
2024/02/12 11:05:16;;;;;;;7.93;4.80;;;12.20;96.80;;;;;;5147020;28;20467;-74
2024/02/12 11:07:43;;;;;;;6.80;3.87;;;12.10;97.40;;;;;;5131486;28;20425;-74
2024/02/12 11:10:14;;;;;;;10.30;4.50;;;12.10;97.70;;;;;;5150589;28;20476;-74
2024/02/12 11:12:41;;;;;;;12.07;6.50;;;12.00;96.20;;;;;;5132424;28;20497;-75
2024/02/12 11:15:12;;;;;;;10.47;4.10;;;11.80;96.20;;;;;;5132276;28;20488;-75
2024/02/12 11:17:38;;;;;;;9.40;5.10;;;11.70;96.80;;;;;;5132181;28;20443;-75
2024/02/12 11:20:15;;;;;;;17.33;8.40;;;11.60;97.60;;;;;;5131893;28;20441;-75
2024/02/12 11:22:44;;;;;;;17.90;8.83;;;11.70;97.50;;;;;;5149749;28;20416;-74
2024/02/12 11:25:17;;;;;;;7.20;4.67;;;11.70;96.90;;;;;;5149375;28;20509;-74
2024/02/12 11:27:49;;;;;;;9.40;4.40;;;11.70;97.00;;;;;;5151252;28;20452;-75
2024/02/12 11:30:16;;;;;;;8.20;3.80;;;11.60;96.70;;;;;;5131627;28;20417;-74
2024/02/12 11:32:44;;;;;;;8.80;5.07;;;11.50;97.10;;;;;;5135437;27;20408;-75
2024/02/12 11:35:15;;;;;;;11.00;4.33;;;11.50;96.90;;;;;;5153427;27;20825;-75
2024/02/12 11:37:47;;;;;;;7.10;4.63;;;11.40;96.50;;;;;;5154491;27;20408;-74
2024/02/12 11:40:18;;;;;;;14.77;5.60;;;11.30;96.50;;;;;;5136846;27;20422;-74
2024/02/12 11:42:51;;;;;;;8.93;3.20;;;11.10;96.30;;;;;;5136464;27;20539;-74
2024/02/12 11:45:25;;;;;;;8.60;4.10;;;11.00;96.40;;;;;;5153400;27;20444;-76
2024/02/12 11:47:51;;;;;;;6.50;3.70;;;10.90;97.20;;;;;;5132326;27;20411;-75
2024/02/12 11:50:25;;;;;;;7.40;3.87;;;10.90;97.30;;;;;;5153987;27;20414;-74
2024/02/12 11:52:55;;;;;;;10.77;3.53;;;11.00;96.90;;;;;;5153842;27;20511;-74
2024/02/12 11:55:21;;;;;;;4.93;2.67;;;11.00;96.10;;;;;;5134181;27;20448;-75
2024/02/12 11:57:47;;;;;;;6.17;3.00;;;10.90;95.90;;;;;;5134837;27;20424;-74
2024/02/12 12:00:20;;;;;;;6.67;3.50;;;10.80;96.20;;;;;;5153296;27;20416;-73
2024/02/12 12:02:51;;;;;;;9.47;4.50;;;10.70;96.10;;;;;;5131333;27;20475;-75
2024/02/12 12:05:24;;;;;;;9.80;4.37;;;10.60;95.90;;;;;;5152808;27;20450;-75
2024/02/12 12:07:51;;;;;;;6.80;4.17;;;10.60;95.60;;;;;;5135276;27;20421;-75
2024/02/12 12:10:24;;;;;;;12.43;3.17;;;10.60;95.30;;;;;;5153515;27;20427;-75
2024/02/12 12:12:51;;;;;;;6.93;3.37;;;10.60;95.30;;;;;;5154285;27;20414;-75
2024/02/12 12:15:18;;;;;;;11.57;4.20;;;10.60;95.10;;;;;;5136797;27;20407;-75
2024/02/12 12:17:46;;;;;;;6.93;4.00;;;10.60;95.60;;;;;;5136148;27;20439;-76
2024/02/12 12:20:12;;;;;;;8.67;3.10;;;10.70;95.60;;;;;;5151916;27;20436;-75
2024/02/12 12:22:39;;;;;;;4.57;2.67;;;10.80;95.40;;;;;;5117014;28;20424;-76
2024/02/12 12:25:09;;;;;;;8.27;4.10;;;10.90;95.60;;;;;;5120356;27;20452;-76
2024/02/12 12:27:37;;;;;;;9.17;4.90;;;11.10;95.50;;;;;;5138761;27;20407;-77
2024/02/12 12:30:16;;;;;;;8.10;4.67;;;11.20;95.50;;;;;;5138204;27;20409;-76
2024/02/12 12:32:43;;;;;;;7.53;3.67;;;11.20;95.20;;;;;;5138475;27;20437;-77
2024/02/12 12:35:09;;;;;;;12.90;6.47;;;11.20;94.50;;;;;;5139185;27;20441;-77
2024/02/12 12:37:41;;;;;;;6.20;3.30;;;10.90;97.40;;;;;;5152502;27;20394;-74
2024/02/12 12:40:10;;;;;;;7.47;3.80;;;10.40;99.90;;;;;;5133621;27;20185;-75
2024/02/12 12:42:39;;;;;;;7.20;5.10;;;9.80;99.90;;;;;;5134610;27;20603;-76
2024/02/12 12:45:08;;;;;;;13.67;9.50;;;9.40;99.90;;;;;;5135553;27;20712;-76
2024/02/12 12:47:41;;;;;;;5.77;4.43;;;9.00;99.90;;;;;;5153937;27;20398;-76
2024/02/12 12:50:08;;;;;;;3.73;2.90;;;8.70;99.90;;;;;;5151622;27;20414;-76
2024/02/12 12:52:34;;;;;;;9.00;5.50;;;8.60;99.90;;;;;;5138387;27;20441;-77
2024/02/12 12:55:00;;;;;;;11.97;6.87;;;8.50;99.90;;;;;;5121979;27;20480;-76
2024/02/12 12:57:26;;;;;;;11.30;7.30;;;8.50;99.90;;;;;;5156313;27;20436;-77
2024/02/12 12:59:52;;;;;;;10.70;6.43;;;8.40;99.90;;;;;;5139056;27;20462;-77
2024/02/12 13:02:20;;;;;;;11.70;7.60;;;8.30;99.90;;;;;;5121000;27;20409;-78